Time;durP1;ratioP1;P1;durP2;ratioP2;P2;SDS_P1;SDS_P2;PMS_P1;PMS_P2;Temp;Humidity;BMP_temperature;BMP_pressure;BME280_temperature;BME280_humidity;BME280_pressure;Samples;Min_cycle;Max_cycle;Signal;HPM_P1;HPM_P2
2022/06/23 00:02:25;;;;;;;;;22.00;19.50;;;;;22.85;62.55;100599.41;5101510;27;45405;-73
2022/06/23 00:04:56;;;;;;;;;19.75;18.50;;;;;22.82;63.38;100594.25;5100766;27;45479;-73
2022/06/23 00:07:24;;;;;;;;;23.00;21.75;;;;;22.86;62.61;100592.13;5101360;27;45313;-73
2022/06/23 00:09:57;;;;;;;;;26.75;26.50;;;;;22.81;62.39;100591.66;5096805;27;45589;-73
2022/06/23 00:12:30;;;;;;;;;19.50;19.50;;;;;22.67;63.30;100590.09;5089040;27;45306;-73
2022/06/23 00:15:21;;;;;;;;;21.00;21.00;;;;;22.67;63.37;100584.66;5096478;27;45330;-73
2022/06/23 00:17:56;;;;;;;;;24.25;23.25;;;;;22.64;63.40;100596.69;5101534;27;45499;-73
2022/06/23 00:20:34;;;;;;;;;20.50;20.25;;;;;22.60;63.52;100584.31;5088388;27;45305;-73
2022/06/23 00:23:05;;;;;;;;;22.75;21.75;;;;;22.51;63.51;100575.09;5095506;27;45300;-73
2022/06/23 00:25:45;;;;;;;;;21.25;21.25;;;;;22.50;63.74;100586.09;5101421;27;46377;-73
2022/06/23 00:28:35;;;;;;;;;18.25;18.25;;;;;22.40;64.06;100596.91;5101348;27;45416;-73
2022/06/23 00:31:32;;;;;;;;;23.75;23.50;;;;;22.39;64.84;100598.78;5090380;27;45465;-73
2022/06/23 00:34:01;;;;;;;;;23.25;22.25;;;;;22.33;64.27;100601.13;5091970;27;45427;-73
2022/06/23 00:36:38;;;;;;;;;23.25;22.25;;;;;22.26;65.32;100591.75;5095667;27;48219;-73
2022/06/23 00:39:18;;;;;;;;;28.00;26.00;;;;;22.18;65.20;100579.66;5091048;27;45505;-73
2022/06/23 00:41:43;;;;;;;;;20.25;20.25;;;;;22.16;65.20;100581.63;5087869;27;45682;-73
2022/06/23 00:44:34;;;;;;;;;20.75;19.75;;;;;22.15;65.27;100571.78;5100030;27;45794;-73
2022/06/23 00:47:05;;;;;;;;;23.25;20.25;;;;;22.26;65.51;100575.44;5100843;27;45266;-73
2022/06/23 00:50:02;;;;;;;;;22.75;21.75;;;;;22.21;65.75;100581.25;5100712;27;45424;-73
2022/06/23 00:53:09;;;;;;;;;22.00;22.00;;;;;22.17;65.93;100564.34;5099362;27;45494;-73
2022/06/23 00:55:34;;;;;;;;;23.25;22.75;;;;;22.26;66.27;100578.16;5098193;27;45488;-73
2022/06/23 00:58:07;;;;;;;;;23.67;23.00;;;;;22.20;66.46;100576.78;5091318;27;46145;-73
2022/06/23 01:00:38;;;;;;;;;25.50;22.75;;;;;22.23;66.22;100565.66;5095124;27;45313;-73
2022/06/23 01:03:19;;;;;;;;;20.25;18.50;;;;;22.25;66.19;100573.69;5101014;27;45254;-73
2022/06/23 01:05:53;;;;;;;;;25.25;23.00;;;;;22.22;66.26;100558.53;5098988;27;45437;-73
2022/06/23 01:08:28;;;;;;;;;22.75;20.50;;;;;22.18;66.61;100557.91;5099040;27;47566;-73
2022/06/23 01:11:03;;;;;;;;;22.50;21.75;;;;;22.18;66.66;100560.63;5086901;27;45574;-73
2022/06/23 01:13:47;;;;;;;;;20.75;20.75;;;;;22.14;67.55;100547.44;5092720;27;46902;-73
2022/06/23 01:16:30;;;;;;;;;19.00;18.75;;;;;22.18;67.35;100560.63;5100605;27;45213;-73
2022/06/23 01:19:32;;;;;;;;;20.25;20.00;;;;;22.16;66.99;100559.03;5086701;27;46103;-73
2022/06/23 01:22:02;;;;;;;;;22.75;22.75;;;;;22.25;67.47;100569.13;5099471;27;45278;-73
2022/06/23 01:24:42;;;;;;;;;28.25;23.50;;;;;22.24;67.04;100566.56;5100276;27;45332;-73
2022/06/23 01:27:38;;;;;;;;;20.50;20.00;;;;;22.23;67.12;100567.53;5095666;27;45401;-73
2022/06/23 01:30:07;;;;;;;;;26.00;25.00;;;;;22.18;67.51;100563.34;5095367;27;46752;-73
2022/06/23 01:32:45;;;;;;;;;23.50;21.00;;;;;22.13;67.07;100557.41;5097305;27;46900;-73
2022/06/23 01:35:23;;;;;;;;;21.50;20.50;;;;;22.04;67.37;100552.78;5096141;27;45504;-73
2022/06/23 01:37:56;;;;;;;;;24.25;23.25;;;;;22.09;67.46;100555.97;5100121;27;45369;-73
2022/06/23 01:41:04;;;;;;;;;27.25;27.25;;;;;22.09;67.56;100561.41;5089040;27;47417;-73
2022/06/23 01:43:43;;;;;;;;;25.50;24.00;;;;;22.09;67.35;100558.69;5046129;28;46285;-73
2022/06/23 01:46:30;;;;;;;;;29.50;26.75;;;;;22.06;67.51;100556.22;5058456;28;45195;-73
2022/06/23 01:49:04;;;;;;;;;28.50;27.50;;;;;22.07;67.52;100560.69;5090799;27;45444;-73
2022/06/23 01:51:39;;;;;;;;;29.50;28.25;;;;;22.06;67.49;100567.09;5101769;27;48045;-73
2022/06/23 01:54:12;;;;;;;;;28.75;28.75;;;;;22.01;67.52;100553.88;5102327;27;45411;-73
2022/06/23 01:56:51;;;;;;;;;22.00;20.50;;;;;22.00;67.31;100556.72;5102080;27;45326;-73
2022/06/23 01:59:47;;;;;;;;;23.50;22.50;;;;;22.12;66.92;100566.59;5103309;27;45338;-73
2022/06/23 02:02:29;;;;;;;;;22.25;21.00;;;;;22.10;66.71;100552.28;5091783;27;45279;-73
2022/06/23 02:05:19;;;;;;;;;26.00;24.25;;;;;22.19;67.34;100561.50;5103062;27;45316;-73
2022/06/23 02:08:25;;;;;;;;;24.75;24.75;;;;;22.16;66.72;100549.00;5091127;27;45460;-73
2022/06/23 02:11:11;;;;;;;;;24.50;22.75;;;;;22.27;66.32;100552.69;5093253;27;45215;-73
2022/06/23 02:13:47;;;;;;;;;32.00;29.25;;;;;22.26;67.13;100556.41;5103062;27;46649;-73
2022/06/23 02:16:26;;;;;;;;;31.00;30.25;;;;;22.26;66.80;100548.25;5103321;27;45590;-73
2022/06/23 02:19:09;;;;;;;;;24.25;22.75;;;;;22.28;66.81;100565.28;5096915;27;45538;-73
2022/06/23 02:21:46;;;;;;;;;27.00;24.75;;;;;22.29;66.46;100557.03;5099255;27;45309;-73
2022/06/23 02:24:25;;;;;;;;;27.00;25.00;;;;;22.27;67.21;100553.56;5102968;27;46137;-73
2022/06/23 02:27:23;;;;;;;;;24.00;24.00;;;;;22.27;66.91;100547.25;5103161;27;45393;-73
2022/06/23 02:30:11;;;;;;;;;26.25;25.50;;;;;22.29;66.82;100545.31;5096782;27;45503;-73
2022/06/23 02:32:59;;;;;;;;;20.50;19.25;;;;;22.31;66.69;100548.75;5098008;27;45374;-73
2022/06/23 02:35:50;;;;;;;;;21.50;19.50;;;;;22.33;66.90;100544.03;5102534;27;46342;-73
2022/06/23 02:38:37;;;;;;;;;16.25;16.25;;;;;22.33;67.32;100541.31;5098448;27;45308;-73
2022/06/23 02:41:02;;;;;;;;;14.50;14.50;;;;;22.32;67.43;100551.34;5096983;27;45715;-73
2022/06/23 02:43:36;;;;;;;;;12.67;11.00;;;;;22.30;67.48;100550.63;5102939;27;45484;-73
2022/06/23 02:46:37;;;;;;;;;10.50;9.00;;;;;22.27;67.44;100544.53;5102743;27;46221;-73
2022/06/23 02:49:18;;;;;;;;;9.00;6.00;;;;;22.25;67.58;100543.78;5101045;27;45247;-74
2022/06/23 02:51:56;;;;;;;;;6.50;5.75;;;;;22.19;66.91;100543.31;5103210;27;45397;-74
2022/06/23 02:54:47;;;;;;;;;4.00;4.00;;;;;22.24;67.38;100555.69;5102575;27;45373;-73
2022/06/23 02:57:30;;;;;;;;;7.25;6.00;;;;;22.20;66.94;100545.06;5102284;27;46231;-73
2022/06/23 03:00:01;;;;;;;;;5.00;5.00;;;;;22.20;66.77;100558.66;5101909;27;45511;-73
2022/06/23 03:03:08;;;;;;;;;7.00;4.00;;;;;22.23;66.80;100557.50;5101494;27;45454;-73
2022/06/23 03:06:13;;;;;;;;;2.75;2.75;;;;;22.18;66.69;100554.31;5078415;27;45777;-74
2022/06/23 03:08:50;;;;;;;;;5.50;4.00;;;;;22.15;66.09;100552.75;5092901;27;45429;-73
2022/06/23 03:11:54;;;;;;;;;4.25;3.25;;;;;22.19;66.27;100562.34;5096658;27;45582;-73
2022/06/23 03:14:37;;;;;;;;;2.00;2.00;;;;;22.22;65.80;100569.41;5092861;27;45475;-73
2022/06/23 03:17:32;;;;;;;;;5.00;3.50;;;;;22.20;65.56;100564.09;5102281;27;45351;-73
2022/06/23 03:20:37;;;;;;;;;4.50;4.50;;;;;22.21;65.84;100571.22;5091480;27;48516;-73
2022/06/23 03:23:32;;;;;;;;;4.00;3.00;;;;;22.21;65.74;100568.50;5102063;27;45241;-73
2022/06/23 03:26:24;;;;;;;;;3.00;3.00;;;;;22.14;65.83;100567.31;5102513;27;45414;-74
2022/06/23 03:29:26;;;;;;;;;3.00;3.00;;;;;22.20;65.41;100576.78;5101677;27;45390;-74
2022/06/23 03:32:10;;;;;;;;;4.50;3.00;;;;;22.17;65.40;100575.22;5090422;27;46452;-73
2022/06/23 03:34:54;;;;;;;;;3.25;3.25;;;;;22.14;65.43;100569.19;5101105;27;45265;-73
2022/06/23 03:37:41;;;;;;;;;4.00;3.00;;;;;22.17;65.49;100582.53;5093260;27;45365;-73
2022/06/23 03:43:32;;;;;;;;;5.50;5.00;;;;;22.17;65.25;100591.53;5053055;28;45858;-73
2022/06/23 03:46:13;;;;;;;;;2.00;2.00;;;;;22.11;65.25;100585.75;5099223;27;45485;-73
2022/06/23 03:48:41;;;;;;;;;4.25;4.25;;;;;22.16;65.44;100600.66;5102100;27;45396;-73
2022/06/23 03:51:24;;;;;;;;;4.00;3.25;;;;;22.10;65.21;100598.47;5089423;27;45454;-73
2022/06/23 03:53:58;;;;;;;;;3.25;3.00;;;;;22.08;65.37;100611.31;5093649;27;46112;-74
2022/06/23 03:56:28;;;;;;;;;5.00;3.50;;;;;21.98;64.98;100600.34;5101822;27;45366;-74
2022/06/23 03:59:02;;;;;;;;;2.75;2.25;;;;;22.01;65.17;100604.66;5100789;27;45280;-73
2022/06/23 04:01:52;;;;;;;;;3.00;3.00;;;;;21.99;65.08;100602.06;5101087;27;45505;-73
2022/06/23 04:04:38;;;;;;;;;2.00;2.00;;;;;22.01;65.05;100608.22;5087530;27;46233;-73
2022/06/23 04:07:29;;;;;;;;;4.75;4.00;;;;;22.00;64.74;100625.56;5079530;27;45540;-74
2022/06/23 04:10:14;;;;;;;;;3.75;2.00;;;;;21.95;65.25;100618.75;5099218;27;45341;-74
2022/06/23 04:12:48;;;;;;;;;2.75;2.50;;;;;21.91;64.80;100606.41;5101646;27;45251;-74
2022/06/23 04:15:22;;;;;;;;;2.00;2.00;;;;;21.91;65.20;100617.28;5101409;27;45910;-74
2022/06/23 04:17:54;;;;;;;;;2.25;2.25;;;;;21.86;65.27;100616.81;5101581;27;45470;-73
2022/06/23 04:20:32;;;;;;;;;7.75;2.50;;;;;21.91;64.97;100631.72;5099524;27;45510;-75
2022/06/23 04:23:04;;;;;;;;;5.00;3.75;;;;;21.74;65.14;100618.66;5101086;27;45397;-74
2022/06/23 04:25:51;;;;;;;;;4.25;3.00;;;;;21.87;65.00;100637.53;5101589;27;45515;-74
2022/06/23 04:28:33;;;;;;;;;2.00;2.00;;;;;21.90;65.00;100637.28;5101250;27;45402;-73
2022/06/23 04:31:01;;;;;;;;;4.00;3.75;;;;;21.90;65.75;100643.59;5089398;27;45271;-73
2022/06/23 04:33:28;;;;;;;;;5.00;2.50;;;;;21.87;65.17;100637.53;5099865;27;45433;-74
2022/06/23 04:36:00;;;;;;;;;4.75;4.25;;;;;21.90;65.39;100640.88;5101096;27;45344;-72
2022/06/23 04:38:47;;;;;;;;;4.25;4.25;;;;;21.87;65.23;100641.13;5093266;27;46357;-73
2022/06/23 04:41:20;;;;;;;;;4.75;4.50;;;;;21.88;65.29;100639.28;5100115;27;45301;-72
2022/06/23 04:43:52;;;;;;;;;3.00;2.00;;;;;21.90;65.31;100650.88;5100984;27;45394;-72
2022/06/23 04:46:26;;;;;;;;;4.00;3.00;;;;;21.80;65.14;100632.63;5100705;27;45291;-71
2022/06/23 04:48:59;;;;;;;;;6.00;6.00;;;;;21.84;65.21;100646.81;5100985;27;45192;-72
2022/06/23 04:51:28;;;;;;;;;5.00;5.00;;;;;21.86;65.36;100652.13;5100898;27;45205;-71
2022/06/23 04:54:10;;;;;;;;;7.75;4.75;;;;;21.86;65.46;100644.81;5100762;27;45385;-72
2022/06/23 04:56:41;;;;;;;;;5.00;5.00;;;;;21.83;65.54;100645.97;5100808;27;45245;-72
2022/06/23 04:59:22;;;;;;;;;3.00;3.00;;;;;21.90;65.26;100648.16;5099503;27;45444;-71
2022/06/23 05:01:50;;;;;;;;;4.75;4.75;;;;;21.85;64.92;100634.94;5099441;27;45287;-71
2022/06/23 05:04:29;;;;;;;;;4.00;2.75;;;;;21.87;64.89;100641.13;5100814;27;45700;-72
2022/06/23 05:06:59;;;;;;;;;5.50;3.00;;;;;21.90;64.83;100643.59;5098218;27;46368;-73
2022/06/23 05:09:36;;;;;;;;;6.75;4.00;;;;;21.86;65.41;100646.69;5095196;27;45534;-72
2022/06/23 05:12:05;;;;;;;;;5.00;3.50;;;;;21.87;65.12;100654.72;5100645;27;45408;-72
2022/06/23 05:14:46;;;;;;;;;3.25;3.25;;;;;21.85;65.37;100659.38;5100660;27;45490;-73
2022/06/23 05:17:21;;;;;;;;;3.50;3.50;;;;;21.86;65.53;100663.84;5087222;27;47204;-74
2022/06/23 05:19:53;;;;;;;;;3.50;3.50;;;;;21.74;65.33;100648.56;5098081;27;45598;-71
2022/06/23 05:22:26;;;;;;;;;4.75;3.00;;;;;21.76;65.07;100652.84;5100798;27;45275;-71
2022/06/23 05:24:53;;;;;;;;;3.00;3.00;;;;;21.78;65.13;100664.47;5100254;27;45310;-74
2022/06/23 05:27:33;;;;;;;;;3.25;3.00;;;;;21.76;64.67;100662.88;5100658;27;45483;-72
2022/06/23 05:30:17;;;;;;;;;5.25;3.50;;;;;21.79;65.10;100665.34;5095381;27;45520;-72
2022/06/23 05:32:48;;;;;;;;;4.25;3.25;;;;;21.72;64.94;100670.41;5096172;27;45406;-72
2022/06/23 05:35:25;;;;;;;;;3.25;3.25;;;;;21.71;65.24;100662.38;5087433;27;45412;-72
2022/06/23 05:38:31;;;;;;;;;4.00;3.25;;;;;21.76;64.64;100661.00;5099424;27;45535;-73
2022/06/23 05:41:02;;;;;;;;;5.00;5.00;;;;;21.76;64.34;100663.72;5066631;27;45613;-73
2022/06/23 05:43:30;;;;;;;;;3.25;3.25;;;;;21.78;64.15;100667.19;5100547;27;45238;-71
2022/06/23 05:45:59;;;;;;;;;3.00;3.00;;;;;21.73;63.32;100663.13;5099753;27;45442;-71
2022/06/23 05:48:42;;;;;;;;;5.50;5.00;;;;;21.67;63.70;100648.19;5100229;27;45436;-72
2022/06/23 05:51:10;;;;;;;;;7.25;6.00;;;;;21.70;63.24;100653.38;5099181;27;45526;-74
2022/06/23 05:53:53;;;;;;;;;5.25;4.75;;;;;21.71;64.04;100655.09;5100129;27;45463;-72
2022/06/23 05:56:33;;;;;;;;;3.25;3.00;;;;;21.64;63.53;100632.13;5087281;27;45482;-73
2022/06/23 05:59:26;;;;;;;;;5.50;5.50;;;;;21.72;63.88;100636.94;5094687;27;46404;-74
2022/06/23 06:02:01;;;;;;;;;5.50;5.50;;;;;21.83;62.97;100656.84;5090577;27;45251;-70
2022/06/23 06:04:50;;;;;;;;;6.25;6.00;;;;;21.86;62.97;100650.25;5098931;27;45334;-72
2022/06/23 06:07:19;;;;;;;;;7.25;6.25;;;;;21.87;62.76;100653.84;5096839;27;45590;-73
2022/06/23 06:09:45;;;;;;;;;8.00;5.75;;;;;21.78;62.70;100633.72;5098306;27;45450;-72
2022/06/23 06:12:22;;;;;;;;;6.50;5.25;;;;;21.89;62.95;100654.59;5099607;27;45308;-72
2022/06/23 06:15:00;;;;;;;;;5.25;4.50;;;;;21.84;63.25;100649.53;5097317;27;45313;-72
2022/06/23 06:17:28;;;;;;;;;7.25;7.25;;;;;21.87;63.08;100657.44;5096672;27;45338;-72
2022/06/23 06:19:57;;;;;;;;;6.50;6.00;;;;;21.77;63.21;100637.44;5099410;27;46093;-72
2022/06/23 06:22:37;;;;;;;;;6.50;6.00;;;;;21.80;62.88;100643.50;5099767;27;45421;-72
2022/06/23 06:25:05;;;;;;;;;4.00;4.00;;;;;21.84;62.97;100638.66;5099605;27;45257;-72
2022/06/23 06:27:30;;;;;;;;;5.50;5.50;;;;;21.91;63.02;100658.91;5097797;27;45368;-73
2022/06/23 06:29:56;;;;;;;;;8.25;7.00;;;;;21.86;63.14;100631.25;5096444;27;45410;-72
2022/06/23 06:32:21;;;;;;;;;4.25;4.25;;;;;21.93;62.50;100640.63;5096785;27;45813;-72
2022/06/23 06:34:54;;;;;;;;;4.00;4.00;;;;;21.85;62.56;100629.50;5102671;27;45251;-71
2022/06/23 06:37:24;;;;;;;;;4.25;4.25;;;;;21.88;62.75;100629.25;5100656;27;45339;-73
2022/06/23 06:39:55;;;;;;;;;6.00;6.00;;;;;21.84;62.49;100625.94;5089096;27;45600;-73
2022/06/23 06:42:26;;;;;;;;;7.50;7.00;;;;;21.86;62.47;100627.69;5102748;27;45453;-73
2022/06/23 06:44:55;;;;;;;;;5.75;5.00;;;;;21.95;61.97;100643.22;5101616;27;45281;-72
2022/06/23 06:47:25;;;;;;;;;7.00;6.00;;;;;21.86;61.50;100631.25;5100450;27;45241;-74
2022/06/23 06:49:53;;;;;;;;;6.25;6.25;;;;;21.92;61.75;100646.16;5102037;27;45460;-73
2022/06/23 06:52:19;;;;;;;;;6.50;5.50;;;;;21.92;62.18;100647.06;5102831;27;45313;-72
2022/06/23 06:54:59;;;;;;;;;11.75;6.00;;;;;21.95;62.12;100649.53;5101324;27;45329;-72
2022/06/23 06:57:41;;;;;;;;;4.25;4.00;;;;;21.96;62.07;100647.66;5100415;27;45386;-72
2022/06/23 07:00:14;;;;;;;;;8.75;8.75;;;;;22.01;61.70;100662.59;5097866;27;46454;-72
2022/06/23 07:02:47;;;;;;;;;7.50;7.50;;;;;22.05;61.70;100663.19;5102919;27;45392;-72
2022/06/23 07:05:46;;;;;;;;;9.00;8.00;;;;;22.08;61.85;100662.94;5099541;27;45471;-72
2022/06/23 07:08:21;;;;;;;;;6.00;6.00;;;;;21.96;61.61;100615.06;5084418;27;45485;-72
2022/06/23 07:10:52;;;;;;;;;6.50;5.75;;;;;22.15;60.46;100647.00;5099025;27;45352;-71
2022/06/23 07:13:36;;;;;;;;;7.00;6.00;;;;;22.17;60.87;100653.19;5092034;27;45433;-73
2022/06/23 07:16:31;;;;;;;;;6.00;5.50;;;;;22.20;60.60;100661.06;5097938;27;45490;-72
2022/06/23 07:19:17;;;;;;;;;6.75;6.25;;;;;22.17;60.84;100669.50;5096600;27;45459;-72
2022/06/23 07:21:50;;;;;;;;;5.25;4.50;;;;;22.18;61.25;100668.50;5099442;27;45365;-72
2022/06/23 07:24:27;;;;;;;;;6.50;6.50;;;;;22.15;60.47;100653.31;5092821;27;45558;-71
2022/06/23 07:27:10;;;;;;;;;7.25;6.25;;;;;22.26;61.14;100657.00;5100595;27;45482;-71
2022/06/23 07:29:50;;;;;;;;;4.75;3.00;;;;;22.30;60.39;100656.66;5094645;27;45805;-72
2022/06/23 07:32:28;;;;;;;;;6.50;6.25;;;;;22.26;60.51;100665.16;5091864;27;47552;-69
2022/06/23 07:35:01;;;;;;;;;7.00;6.75;;;;;22.27;60.39;100662.31;5101353;27;45647;-69
2022/06/23 07:37:36;;;;;;;;;9.00;6.50;;;;;22.32;60.41;100661.94;5101791;27;45315;-70
2022/06/23 07:40:06;;;;;;;;;7.50;6.00;;;;;22.36;60.40;100658.84;5099014;27;45442;-69
2022/06/23 07:43:10;;;;;;;;;8.75;7.00;;;;;22.51;60.70;100672.16;5098214;27;46423;-69
2022/06/23 07:45:48;;;;;;;;;6.00;6.00;;;;;22.56;60.08;100681.66;5097569;27;45431;-69
2022/06/23 07:48:14;;;;;;;;;6.50;5.00;;;;;22.55;60.29;100670.91;5088315;27;45255;-69
2022/06/23 07:50:39;;;;;;;;;8.00;6.25;;;;;22.64;59.98;100681.03;5096297;27;45152;-69
2022/06/23 07:53:09;;;;;;;;;5.75;5.75;;;;;22.69;60.13;100669.75;5097466;27;47140;-69
2022/06/23 07:55:40;;;;;;;;;7.75;6.50;;;;;22.74;59.96;100668.34;5089643;27;45507;-69
2022/06/23 07:58:07;;;;;;;;;7.50;6.50;;;;;22.75;60.11;100664.66;5098522;27;45400;-69
2022/06/23 08:00:37;;;;;;;;;6.25;6.25;;;;;22.81;59.93;100660.53;5100861;27;45222;-69
2022/06/23 08:03:18;;;;;;;;;6.00;5.00;;;;;22.81;59.09;100652.38;5100974;27;45502;-69
2022/06/23 08:05:48;;;;;;;;;9.25;6.00;;;;;22.90;59.43;100657.03;5098509;27;45360;-69
2022/06/23 08:08:21;;;;;;;;;7.00;7.00;;;;;22.99;59.11;100665.38;5099310;27;45355;-69
2022/06/23 08:12:53;;;;;;;;;6.00;6.00;;;;;22.97;58.97;100649.22;5100830;27;45475;-69
2022/06/23 08:13:38;;;;;;;;;7.00;5.00;;;;;23.13;58.56;100662.38;5093471;27;45414;-69
2022/06/23 08:18:52;;;;;;;;;6.00;6.00;;;;;23.26;58.47;100665.75;5098837;27;45583;-69
2022/06/23 08:21:37;;;;;;;;;7.25;6.50;;;;;23.28;58.68;100655.59;5093348;27;45788;-69
2022/06/23 08:24:13;;;;;;;;;6.25;6.00;;;;;23.35;58.16;100652.34;5096132;27;48465;-69
2022/06/23 08:26:42;;;;;;;;;6.00;6.00;;;;;23.46;58.02;100657.72;5091620;27;45579;-69
2022/06/23 08:29:11;;;;;;;;;7.25;6.00;;;;;23.45;58.51;100656.81;5099345;27;45465;-70
2022/06/23 08:31:39;;;;;;;;;7.25;7.25;;;;;23.55;58.13;100658.75;5092559;27;45569;-69
2022/06/23 08:34:06;;;;;;;;;7.50;6.25;;;;;23.61;57.95;100674.56;5098444;27;45346;-69
2022/06/23 08:36:45;;;;;;;;;9.00;7.00;;;;;23.60;57.08;100667.38;5098680;27;45740;-70
2022/06/23 08:39:28;;;;;;;;;5.50;4.25;;;;;23.59;57.73;100657.47;5097959;27;45949;-69
2022/06/23 08:42:05;;;;;;;;;6.75;5.50;;;;;23.60;57.29;100660.06;5099052;27;45397;-69
2022/06/23 08:44:33;;;;;;;;;7.00;7.00;;;;;23.68;57.11;100668.41;5097707;27;46288;-69
2022/06/23 08:47:04;;;;;;;;;5.75;5.75;;;;;23.63;57.07;100650.75;5103741;27;45515;-71
2022/06/23 08:49:53;;;;;;;;;6.00;5.50;;;;;23.73;57.18;100658.97;5087534;27;45429;-71
2022/06/23 08:52:34;;;;;;;;;6.50;6.50;;;;;23.75;56.37;100665.16;5099199;27;45428;-71
2022/06/23 08:55:09;;;;;;;;;6.00;6.00;;;;;23.72;56.34;100669.00;5098983;27;45482;-71
2022/06/23 08:57:38;;;;;;;;;3.25;3.00;;;;;23.72;55.97;100663.53;5099485;27;45555;-71
2022/06/23 09:00:25;;;;;;;;;7.50;6.50;;;;;23.66;56.68;100659.53;5100259;27;45360;-71
2022/06/23 09:02:59;;;;;;;;;7.50;6.50;;;;;23.75;56.58;100666.00;5092897;27;45294;-71
2022/06/23 09:05:38;;;;;;;;;6.50;6.00;;;;;23.77;56.28;100669.47;5098061;27;45498;-72
2022/06/23 09:08:27;;;;;;;;;6.00;6.00;;;;;23.81;56.61;100661.88;5099681;27;45544;-71
2022/06/23 09:11:11;;;;;;;;;6.00;5.75;;;;;23.81;56.25;100654.56;5088517;27;45441;-71
2022/06/23 09:13:56;;;;;;;;;5.25;5.25;;;;;23.88;56.05;100659.50;5096535;27;45428;-71
2022/06/23 09:16:43;;;;;;;;;4.00;4.00;;;;;23.90;56.40;100666.53;5098341;27;46622;-71
2022/06/23 09:19:19;;;;;;;;;7.00;6.75;;;;;23.83;56.41;100649.00;5097816;27;45304;-71
2022/06/23 09:22:12;;;;;;;;;7.25;6.75;;;;;23.98;55.94;100661.25;5096386;27;45269;-71
2022/06/23 09:24:58;;;;;;;;;9.25;7.00;;;;;24.04;56.18;100665.31;5094554;27;45341;-72
2022/06/23 09:27:58;;;;;;;;;8.75;5.75;;;;;24.10;55.99;100653.81;5086865;27;47413;-71
2022/06/23 09:31:11;;;;;;;;;6.50;6.50;;;;;24.15;55.65;100662.44;5086719;27;46107;-72
2022/06/23 09:33:48;;;;;;;;;5.50;4.00;;;;;24.18;55.49;100656.72;5043888;28;45494;-74
2022/06/23 09:36:44;;;;;;;;;5.25;5.00;;;;;24.19;55.05;100650.25;5026032;28;45498;-72
2022/06/23 09:39:35;;;;;;;;;5.75;5.75;;;;;24.24;54.98;100644.41;5079408;27;45865;-72
2022/06/23 09:42:45;;;;;;;;;6.50;6.50;;;;;24.26;54.51;100646.94;5098754;27;45435;-72
2022/06/23 09:45:46;;;;;;;;;6.75;6.50;;;;;24.27;54.89;100645.97;5090612;27;45790;-72
2022/06/23 09:48:52;;;;;;;;;7.00;7.00;;;;;24.30;55.08;100654.72;5089402;27;45221;-71
2022/06/23 09:51:54;;;;;;;;;5.00;5.00;;;;;24.33;54.59;100649.00;5076520;27;46202;-72
2022/06/23 09:54:31;;;;;;;;;7.75;7.75;;;;;24.36;54.57;100651.44;5084911;27;45844;-72
2022/06/23 09:57:41;;;;;;;;;7.75;7.75;;;;;24.40;54.54;100658.31;5090185;27;45412;-71
2022/06/23 10:00:12;;;;;;;;;7.25;5.25;;;;;24.38;54.28;100645.84;5076292;28;45462;-72
2022/06/23 10:02:44;;;;;;;;;5.75;5.50;;;;;24.49;54.41;100658.47;5076057;28;45540;-72
2022/06/23 10:05:24;;;;;;;;;7.00;7.00;;;;;24.37;54.84;100630.47;5080755;27;45694;-72
2022/06/23 10:08:20;;;;;;;;;5.75;5.75;;;;;24.56;53.89;100651.50;5099552;27;45534;-72
2022/06/23 10:11:18;;;;;;;;;7.00;7.00;;;;;24.58;54.61;100644.03;5092755;27;45479;-72
2022/06/23 10:13:57;;;;;;;;;7.00;6.75;;;;;24.62;54.28;100647.31;5092321;27;45448;-70
2022/06/23 10:16:29;;;;;;;;;8.00;8.00;;;;;24.74;54.27;100654.34;5101127;27;45372;-70
2022/06/23 10:18:57;;;;;;;;;6.75;6.75;;;;;24.77;53.99;100646.75;5102451;27;45426;-69
2022/06/23 10:21:55;;;;;;;;;6.25;6.25;;;;;24.77;54.13;100648.59;5102332;27;45244;-70
2022/06/23 10:24:41;;;;;;;;;7.25;7.25;;;;;24.82;53.39;100645.44;5101391;27;45489;-70
2022/06/23 10:27:15;;;;;;;;;7.25;7.25;;;;;24.82;53.82;100649.03;5101328;27;45681;-70
2022/06/23 10:29:53;;;;;;;;;7.00;6.25;;;;;24.84;53.42;100652.50;5090687;27;45551;-69
2022/06/23 10:32:53;;;;;;;;;8.00;6.50;;;;;24.85;53.40;100648.75;5102491;27;45386;-70
2022/06/23 10:35:39;;;;;;;;;6.50;6.25;;;;;24.83;52.95;100628.09;5088352;27;45514;-72
2022/06/23 10:38:10;;;;;;;;;8.00;8.00;;;;;24.90;53.26;100635.53;5095739;27;45516;-74
2022/06/23 10:41:10;;;;;;;;;7.50;7.00;;;;;24.92;53.09;100630.78;5100364;27;45334;-74
2022/06/23 10:43:57;;;;;;;;;8.50;8.00;;;;;24.77;53.38;100614.00;5090145;27;45412;-74
2022/06/23 10:46:44;;;;;;;;;7.25;7.25;;;;;24.96;52.76;100634.94;5099596;27;45677;-74
2022/06/23 10:50:01;;;;;;;;;7.00;6.25;;;;;25.01;52.96;100630.91;5099811;27;45633;-74
2022/06/23 10:52:51;;;;;;;;;6.75;5.75;;;;;25.05;52.94;100629.63;5089435;27;45521;-74
2022/06/23 10:55:25;;;;;;;;;8.25;7.25;;;;;25.06;52.78;100637.66;5100942;27;45504;-74
2022/06/23 10:58:16;;;;;;;;;4.75;4.75;;;;;25.07;52.15;100628.44;5087119;27;47576;-74
2022/06/23 11:00:56;;;;;;;;;6.00;6.00;;;;;24.97;51.34;100616.69;5082913;27;46678;-74
2022/06/23 11:03:42;;;;;;;;;5.50;5.50;;;;;24.93;51.36;100605.22;5094993;27;45396;-74
2022/06/23 11:06:25;;;;;;;;;7.50;6.25;;;;;25.12;51.88;100637.06;5091447;27;45436;-74
2022/06/23 11:09:36;;;;;;;;;7.00;7.00;;;;;25.13;51.73;100630.59;5098820;27;45555;-74
2022/06/23 11:12:13;;;;;;;;;8.25;7.25;;;;;25.18;51.68;100623.84;5101141;27;45277;-74
2022/06/23 11:15:07;;;;;;;;;6.50;6.50;;;;;25.05;51.58;100594.13;5100748;27;45363;-74
2022/06/23 11:18:17;;;;;;;;;6.75;6.75;;;;;25.24;51.94;100617.78;5101311;27;45502;-74
2022/06/23 11:21:01;;;;;;;;;5.50;5.50;;;;;25.23;50.74;100611.47;5048637;27;45509;-74
2022/06/23 11:23:49;;;;;;;;;6.00;6.00;;;;;25.15;50.80;100592.22;5088020;27;46326;-74
2022/06/23 11:26:52;;;;;;;;;8.00;8.00;;;;;25.17;51.08;100583.88;5082736;27;45433;-74
2022/06/23 11:29:17;;;;;;;;;9.50;8.00;;;;;25.36;51.09;100605.72;5098514;27;45302;-74
2022/06/23 11:31:43;;;;;;;;;7.00;6.00;;;;;25.41;50.91;100614.31;5101627;27;45420;-74
2022/06/23 11:34:27;;;;;;;;;6.33;6.33;;;;;25.44;49.75;100594.91;5102015;27;45365;-74
2022/06/23 11:37:30;;;;;;;;;5.00;5.00;;;;;25.47;49.46;100599.19;5101123;27;45509;-74
2022/06/23 11:40:17;;;;;;;;;9.25;6.25;;;;;25.49;49.71;100598.03;5096009;27;45587;-74
2022/06/23 11:43:22;;;;;;;;;8.50;7.25;;;;;25.54;50.74;100588.53;5090274;27;47299;-74
2022/06/23 11:46:00;;;;;;;;;6.00;6.00;;;;;25.60;49.27;100596.97;5098705;27;45505;-74
2022/06/23 11:48:54;;;;;;;;;6.25;6.25;;;;;25.65;49.24;100591.91;5094253;27;45409;-75
2022/06/23 11:51:43;;;;;;;;;6.00;6.00;;;;;25.68;49.73;100586.16;5092214;27;45258;-74
2022/06/23 11:54:22;;;;;;;;;7.00;5.00;;;;;25.62;48.85;100566.75;5088331;27;45580;-74
2022/06/23 11:56:51;;;;;;;;;8.75;8.00;;;;;25.68;49.42;100577.09;5101197;27;45575;-72
2022/06/23 11:59:29;;;;;;;;;6.25;6.00;;;;;25.77;48.89;100584.38;5100678;27;45309;-72
2022/06/23 12:01:55;;;;;;;;;8.00;8.00;;;;;25.59;49.33;100547.94;5100923;27;45464;-72
2022/06/23 12:04:35;;;;;;;;;7.50;6.50;;;;;25.83;48.82;100572.81;5101109;27;46053;-72
2022/06/23 12:07:25;;;;;;;;;5.75;5.75;;;;;25.85;47.83;100565.31;5085717;27;45406;-73
2022/06/23 12:10:22;;;;;;;;;5.75;5.75;;;;;25.89;48.56;100571.34;5092234;27;45503;-73
2022/06/23 12:12:50;;;;;;;;;7.50;6.50;;;;;25.81;48.33;100541.19;5092205;27;45511;-73
2022/06/23 12:15:20;;;;;;;;;6.75;6.00;;;;;25.95;48.21;100550.75;5089344;27;45567;-74
2022/06/23 12:17:55;;;;;;;;;8.25;7.00;;;;;25.94;48.43;100547.13;5093632;27;45878;-77
2022/06/23 12:20:55;;;;;;;;;4.75;4.75;;;;;25.99;48.22;100549.44;5093313;27;45896;-76
2022/06/23 12:23:26;;;;;;;;;8.50;6.25;;;;;26.02;47.28;100549.13;5085648;27;45691;-75
2022/06/23 12:26:23;;;;;;;;;5.75;5.25;;;;;26.01;47.88;100537.34;5096468;27;45485;-76
2022/06/23 12:29:17;;;;;;;;;6.50;6.00;;;;;26.05;47.46;100543.38;5093023;27;45762;-75
2022/06/23 12:31:56;;;;;;;;;5.50;5.25;;;;;26.08;47.59;100540.31;5092573;27;45734;-75